sensor_id;sensor_type;location;lat;lon;timestamp;temperature;humidity
5940;DHT22;2995;-31.998;115.906;2023-08-24T00:01:51;9.70;99.90
5940;DHT22;2995;-31.998;115.906;2023-08-24T00:04:22;9.70;99.90
5940;DHT22;2995;-31.998;115.906;2023-08-24T00:06:53;9.70;99.90
5940;DHT22;2995;-31.998;115.906;2023-08-24T00:09:24;9.80;99.90
5940;DHT22;2995;-31.998;115.906;2023-08-24T00:11:58;9.70;99.90
5940;DHT22;2995;-31.998;115.906;2023-08-24T00:14:30;9.80;99.90
5940;DHT22;2995;-31.998;115.906;2023-08-24T00:17:01;9.80;99.90
5940;DHT22;2995;-31.998;115.906;2023-08-24T00:19:32;9.90;99.90
5940;DHT22;2995;-31.998;115.906;2023-08-24T00:22:03;9.90;99.90
5940;DHT22;2995;-31.998;115.906;2023-08-24T00:24:35;10.00;99.90
5940;DHT22;2995;-31.998;115.906;2023-08-24T00:27:08;10.00;99.90
5940;DHT22;2995;-31.998;115.906;2023-08-24T00:29:39;10.10;99.90
5940;DHT22;2995;-31.998;115.906;2023-08-24T00:32:10;10.10;99.90
5940;DHT22;2995;-31.998;115.906;2023-08-24T00:34:41;10.20;99.90
5940;DHT22;2995;-31.998;115.906;2023-08-24T00:37:13;10.30;99.90
5940;DHT22;2995;-31.998;115.906;2023-08-24T00:39:44;10.40;99.90
5940;DHT22;2995;-31.998;115.906;2023-08-24T00:42:18;10.50;99.90
5940;DHT22;2995;-31.998;115.906;2023-08-24T00:44:50;10.70;99.90
5940;DHT22;2995;-31.998;115.906;2023-08-24T00:47:21;10.70;99.90
5940;DHT22;2995;-31.998;115.906;2023-08-24T00:49:53;10.80;99.90
5940;DHT22;2995;-31.998;115.906;2023-08-24T00:52:25;11.10;99.90
5940;DHT22;2995;-31.998;115.906;2023-08-24T00:55:00;11.30;99.90
5940;DHT22;2995;-31.998;115.906;2023-08-24T00:57:34;11.50;99.90
5940;DHT22;2995;-31.998;115.906;2023-08-24T01:00:07;11.70;99.90
5940;DHT22;2995;-31.998;115.906;2023-08-24T01:02:39;11.80;99.90
5940;DHT22;2995;-31.998;115.906;2023-08-24T01:05:10;12.10;99.90
5940;DHT22;2995;-31.998;115.906;2023-08-24T01:07:41;12.20;99.90
5940;DHT22;2995;-31.998;115.906;2023-08-24T01:10:13;12.40;99.90
5940;DHT22;2995;-31.998;115.906;2023-08-24T01:12:57;12.50;99.90
5940;DHT22;2995;-31.998;115.906;2023-08-24T01:15:32;12.70;99.90
5940;DHT22;2995;-31.998;115.906;2023-08-24T01:18:08;12.70;99.90
5940;DHT22;2995;-31.998;115.906;2023-08-24T01:20:42;13.00;99.90
5940;DHT22;2995;-31.998;115.906;2023-08-24T01:23:23;13.10;99.90
5940;DHT22;2995;-31.998;115.906;2023-08-24T01:26:13;13.20;99.90
5940;DHT22;2995;-31.998;115.906;2023-08-24T01:28:45;13.50;99.90
5940;DHT22;2995;-31.998;115.906;2023-08-24T01:31:17;13.70;99.90
5940;DHT22;2995;-31.998;115.906;2023-08-24T01:33:48;13.90;99.90
5940;DHT22;2995;-31.998;115.906;2023-08-24T01:36:19;14.00;99.90
5940;DHT22;2995;-31.998;115.906;2023-08-24T01:38:57;14.10;99.90
5940;DHT22;2995;-31.998;115.906;2023-08-24T01:41:37;14.30;99.90
5940;DHT22;2995;-31.998;115.906;2023-08-24T01:44:12;14.50;99.90
5940;DHT22;2995;-31.998;115.906;2023-08-24T01:46:44;14.50;99.90
5940;DHT22;2995;-31.998;115.906;2023-08-24T01:49:17;14.60;99.90
5940;DHT22;2995;-31.998;115.906;2023-08-24T01:51:50;14.80;99.90
5940;DHT22;2995;-31.998;115.906;2023-08-24T01:54:21;14.90;99.90
5940;DHT22;2995;-31.998;115.906;2023-08-24T01:56:55;15.10;99.90
5940;DHT22;2995;-31.998;115.906;2023-08-24T01:59:26;15.10;99.90
5940;DHT22;2995;-31.998;115.906;2023-08-24T02:01:57;15.20;99.90
5940;DHT22;2995;-31.998;115.906;2023-08-24T02:04:28;15.20;99.90
5940;DHT22;2995;-31.998;115.906;2023-08-24T02:07:00;15.40;99.90
5940;DHT22;2995;-31.998;115.906;2023-08-24T02:09:31;15.50;99.90
5940;DHT22;2995;-31.998;115.906;2023-08-24T02:12:04;15.50;99.90
5940;DHT22;2995;-31.998;115.906;2023-08-24T02:14:35;15.60;99.90
5940;DHT22;2995;-31.998;115.906;2023-08-24T02:17:07;15.70;99.90
5940;DHT22;2995;-31.998;115.906;2023-08-24T02:19:38;15.80;99.90
5940;DHT22;2995;-31.998;115.906;2023-08-24T02:22:09;15.90;99.90
5940;DHT22;2995;-31.998;115.906;2023-08-24T02:24:40;16.10;99.90
5940;DHT22;2995;-31.998;115.906;2023-08-24T02:27:13;16.30;99.90
5940;DHT22;2995;-31.998;115.906;2023-08-24T02:29:45;16.20;99.90
5940;DHT22;2995;-31.998;115.906;2023-08-24T02:32:16;16.20;99.90
5940;DHT22;2995;-31.998;115.906;2023-08-24T02:34:47;16.30;99.90
5940;DHT22;2995;-31.998;115.906;2023-08-24T02:37:18;16.50;99.90
5940;DHT22;2995;-31.998;115.906;2023-08-24T02:39:49;16.50;99.90
5940;DHT22;2995;-31.998;115.906;2023-08-24T02:42:23;16.60;99.90
5940;DHT22;2995;-31.998;115.906;2023-08-24T02:44:54;16.70;99.90
5940;DHT22;2995;-31.998;115.906;2023-08-24T02:47:25;16.60;99.90
5940;DHT22;2995;-31.998;115.906;2023-08-24T02:49:57;16.70;99.90
5940;DHT22;2995;-31.998;115.906;2023-08-24T02:52:28;16.80;99.90
5940;DHT22;2995;-31.998;115.906;2023-08-24T02:55:00;16.80;99.90
5940;DHT22;2995;-31.998;115.906;2023-08-24T02:57:35;17.00;99.90
5940;DHT22;2995;-31.998;115.906;2023-08-24T03:00:07;17.20;99.90
5940;DHT22;2995;-31.998;115.906;2023-08-24T03:02:41;17.30;99.90
5940;DHT22;2995;-31.998;115.906;2023-08-24T03:05:12;17.40;99.90
5940;DHT22;2995;-31.998;115.906;2023-08-24T03:07:44;17.50;99.90
5940;DHT22;2995;-31.998;115.906;2023-08-24T03:10:15;17.60;99.90
5940;DHT22;2995;-31.998;115.906;2023-08-24T03:12:48;17.50;99.90
5940;DHT22;2995;-31.998;115.906;2023-08-24T03:15:19;17.60;99.90
5940;DHT22;2995;-31.998;115.906;2023-08-24T03:17:51;17.80;99.90
5940;DHT22;2995;-31.998;115.906;2023-08-24T03:20:22;18.00;99.90
5940;DHT22;2995;-31.998;115.906;2023-08-24T03:22:54;18.00;99.90
5940;DHT22;2995;-31.998;115.906;2023-08-24T03:25:25;18.20;99.90
5940;DHT22;2995;-31.998;115.906;2023-08-24T03:27:59;18.20;99.90
5940;DHT22;2995;-31.998;115.906;2023-08-24T03:30:30;18.20;99.90
5940;DHT22;2995;-31.998;115.906;2023-08-24T03:33:01;18.20;99.90
5940;DHT22;2995;-31.998;115.906;2023-08-24T03:35:33;18.20;99.90
5940;DHT22;2995;-31.998;115.906;2023-08-24T03:38:04;18.30;99.90
5940;DHT22;2995;-31.998;115.906;2023-08-24T03:40:36;18.30;99.90
5940;DHT22;2995;-31.998;115.906;2023-08-24T03:43:09;18.30;99.90
5940;DHT22;2995;-31.998;115.906;2023-08-24T03:45:42;18.30;99.90
5940;DHT22;2995;-31.998;115.906;2023-08-24T03:48:13;18.40;99.90
5940;DHT22;2995;-31.998;115.906;2023-08-24T03:50:44;18.30;99.90
5940;DHT22;2995;-31.998;115.906;2023-08-24T03:53:15;18.20;99.90
5940;DHT22;2995;-31.998;115.906;2023-08-24T03:55:49;18.00;99.90
5940;DHT22;2995;-31.998;115.906;2023-08-24T03:58:22;18.30;99.90
5940;DHT22;2995;-31.998;115.906;2023-08-24T04:00:54;18.50;99.90
5940;DHT22;2995;-31.998;115.906;2023-08-24T04:03:25;18.60;99.90
5940;DHT22;2995;-31.998;115.906;2023-08-24T04:05:56;18.50;99.90
5940;DHT22;2995;-31.998;115.906;2023-08-24T04:08:27;18.60;99.90
5940;DHT22;2995;-31.998;115.906;2023-08-24T04:10:59;18.70;99.90
5940;DHT22;2995;-31.998;115.906;2023-08-24T04:13:32;18.70;99.90
5940;DHT22;2995;-31.998;115.906;2023-08-24T04:16:03;18.80;99.90
5940;DHT22;2995;-31.998;115.906;2023-08-24T04:18:34;19.10;99.90
5940;DHT22;2995;-31.998;115.906;2023-08-24T04:21:06;19.20;99.90
5940;DHT22;2995;-31.998;115.906;2023-08-24T04:23:37;19.30;99.90
5940;DHT22;2995;-31.998;115.906;2023-08-24T04:26:12;19.30;99.90
5940;DHT22;2995;-31.998;115.906;2023-08-24T04:28:46;19.30;99.90
5940;DHT22;2995;-31.998;115.906;2023-08-24T04:31:18;19.40;99.90
5940;DHT22;2995;-31.998;115.906;2023-08-24T04:33:49;19.50;99.90
5940;DHT22;2995;-31.998;115.906;2023-08-24T04:36:20;19.60;99.90
5940;DHT22;2995;-31.998;115.906;2023-08-24T04:38:51;19.60;99.90
5940;DHT22;2995;-31.998;115.906;2023-08-24T04:41:23;19.70;99.90
5940;DHT22;2995;-31.998;115.906;2023-08-24T04:43:56;19.70;99.90
5940;DHT22;2995;-31.998;115.906;2023-08-24T04:46:27;19.80;99.90
5940;DHT22;2995;-31.998;115.906;2023-08-24T04:48:58;19.80;99.90
5940;DHT22;2995;-31.998;115.906;2023-08-24T04:51:30;19.80;99.90
5940;DHT22;2995;-31.998;115.906;2023-08-24T04:54:01;19.80;99.90
5940;DHT22;2995;-31.998;115.906;2023-08-24T04:56:32;19.70;99.90
5940;DHT22;2995;-31.998;115.906;2023-08-24T04:59:06;19.70;99.90
5940;DHT22;2995;-31.998;115.906;2023-08-24T05:01:38;19.70;99.90
5940;DHT22;2995;-31.998;115.906;2023-08-24T05:04:09;19.80;99.90
5940;DHT22;2995;-31.998;115.906;2023-08-24T05:06:41;19.70;99.90
5940;DHT22;2995;-31.998;115.906;2023-08-24T05:09:12;19.80;99.90
5940;DHT22;2995;-31.998;115.906;2023-08-24T05:11:43;19.70;99.90
5940;DHT22;2995;-31.998;115.906;2023-08-24T05:14:16;19.70;99.90
5940;DHT22;2995;-31.998;115.906;2023-08-24T05:16:48;19.80;99.90
5940;DHT22;2995;-31.998;115.906;2023-08-24T05:19:20;19.70;99.90
5940;DHT22;2995;-31.998;115.906;2023-08-24T05:21:51;19.70;99.90
5940;DHT22;2995;-31.998;115.906;2023-08-24T05:24:22;20.00;99.90
5940;DHT22;2995;-31.998;115.906;2023-08-24T05:26:53;19.90;99.90
5940;DHT22;2995;-31.998;115.906;2023-08-24T05:29:27;19.80;99.90
5940;DHT22;2995;-31.998;115.906;2023-08-24T05:31:58;19.90;99.90
5940;DHT22;2995;-31.998;115.906;2023-08-24T05:34:30;20.00;99.90
5940;DHT22;2995;-31.998;115.906;2023-08-24T05:37:09;20.10;99.90
5940;DHT22;2995;-31.998;115.906;2023-08-24T05:39:40;20.10;99.90
5940;DHT22;2995;-31.998;115.906;2023-08-24T05:42:11;20.10;99.90
5940;DHT22;2995;-31.998;115.906;2023-08-24T05:44:45;20.20;99.90
5940;DHT22;2995;-31.998;115.906;2023-08-24T05:47:16;20.20;99.90
5940;DHT22;2995;-31.998;115.906;2023-08-24T05:49:47;20.30;99.90
5940;DHT22;2995;-31.998;115.906;2023-08-24T05:52:18;20.30;99.90
5940;DHT22;2995;-31.998;115.906;2023-08-24T05:54:49;20.40;99.90
5940;DHT22;2995;-31.998;115.906;2023-08-24T05:57:21;20.40;99.90
5940;DHT22;2995;-31.998;115.906;2023-08-24T05:59:54;20.50;99.90
5940;DHT22;2995;-31.998;115.906;2023-08-24T06:02:25;20.40;99.90
5940;DHT22;2995;-31.998;115.906;2023-08-24T06:05:06;20.50;99.90
5940;DHT22;2995;-31.998;115.906;2023-08-24T06:07:42;20.50;99.90
5940;DHT22;2995;-31.998;115.906;2023-08-24T06:10:14;20.60;99.90
5940;DHT22;2995;-31.998;115.906;2023-08-24T06:12:45;20.50;99.90
5940;DHT22;2995;-31.998;115.906;2023-08-24T06:15:18;20.40;99.90
5940;DHT22;2995;-31.998;115.906;2023-08-24T06:17:52;20.30;99.90
5940;DHT22;2995;-31.998;115.906;2023-08-24T06:20:23;20.50;99.90
5940;DHT22;2995;-31.998;115.906;2023-08-24T06:22:54;20.40;99.90
5940;DHT22;2995;-31.998;115.906;2023-08-24T06:25:26;20.30;99.90
5940;DHT22;2995;-31.998;115.906;2023-08-24T06:27:57;20.40;99.90
5940;DHT22;2995;-31.998;115.906;2023-08-24T06:30:34;20.50;99.90
5940;DHT22;2995;-31.998;115.906;2023-08-24T06:33:07;20.50;99.90
5940;DHT22;2995;-31.998;115.906;2023-08-24T06:35:40;20.40;99.90
5940;DHT22;2995;-31.998;115.906;2023-08-24T06:38:11;20.40;99.90
5940;DHT22;2995;-31.998;115.906;2023-08-24T06:40:42;20.40;99.90
5940;DHT22;2995;-31.998;115.906;2023-08-24T06:43:13;20.50;99.90
5940;DHT22;2995;-31.998;115.906;2023-08-24T06:45:47;20.60;99.90
5940;DHT22;2995;-31.998;115.906;2023-08-24T06:48:19;20.40;99.90
5940;DHT22;2995;-31.998;115.906;2023-08-24T06:50:50;20.40;99.90
5940;DHT22;2995;-31.998;115.906;2023-08-24T06:53:22;20.50;99.90
5940;DHT22;2995;-31.998;115.906;2023-08-24T06:55:56;20.60;99.90
5940;DHT22;2995;-31.998;115.906;2023-08-24T06:58:27;20.50;99.90
5940;DHT22;2995;-31.998;115.906;2023-08-24T07:01:03;20.50;99.90
5940;DHT22;2995;-31.998;115.906;2023-08-24T07:03:48;20.60;99.90
5940;DHT22;2995;-31.998;115.906;2023-08-24T07:06:19;20.50;99.90
5940;DHT22;2995;-31.998;115.906;2023-08-24T07:08:50;20.40;99.90
5940;DHT22;2995;-31.998;115.906;2023-08-24T07:11:21;20.50;99.90
5940;DHT22;2995;-31.998;115.906;2023-08-24T07:13:53;20.60;99.90
5940;DHT22;2995;-31.998;115.906;2023-08-24T07:16:26;20.60;99.90
5940;DHT22;2995;-31.998;115.906;2023-08-24T07:18:57;20.70;99.90
5940;DHT22;2995;-31.998;115.906;2023-08-24T07:21:28;20.70;99.90
5940;DHT22;2995;-31.998;115.906;2023-08-24T07:23:59;20.60;99.90
5940;DHT22;2995;-31.998;115.906;2023-08-24T07:26:31;20.40;99.90
5940;DHT22;2995;-31.998;115.906;2023-08-24T07:29:02;20.30;99.90
5940;DHT22;2995;-31.998;115.906;2023-08-24T07:31:35;20.30;99.90
5940;DHT22;2995;-31.998;115.906;2023-08-24T07:34:07;20.30;99.90
5940;DHT22;2995;-31.998;115.906;2023-08-24T07:36:38;20.30;99.90
5940;DHT22;2995;-31.998;115.906;2023-08-24T07:39:10;20.10;99.90
5940;DHT22;2995;-31.998;115.906;2023-08-24T07:41:42;20.10;99.90
5940;DHT22;2995;-31.998;115.906;2023-08-24T07:44:13;20.10;99.90
5940;DHT22;2995;-31.998;115.906;2023-08-24T07:46:46;20.10;99.90
5940;DHT22;2995;-31.998;115.906;2023-08-24T07:49:17;20.10;99.90
5940;DHT22;2995;-31.998;115.906;2023-08-24T07:51:49;19.90;99.90
5940;DHT22;2995;-31.998;115.906;2023-08-24T07:54:20;19.80;99.90
5940;DHT22;2995;-31.998;115.906;2023-08-24T07:56:51;19.80;99.90
5940;DHT22;2995;-31.998;115.906;2023-08-24T07:59:22;19.80;99.90
5940;DHT22;2995;-31.998;115.906;2023-08-24T08:01:55;19.80;99.90
5940;DHT22;2995;-31.998;115.906;2023-08-24T08:04:27;19.60;99.90
5940;DHT22;2995;-31.998;115.906;2023-08-24T08:06:58;19.50;99.90
5940;DHT22;2995;-31.998;115.906;2023-08-24T08:09:29;19.50;99.90
5940;DHT22;2995;-31.998;115.906;2023-08-24T08:12:00;19.50;99.90
5940;DHT22;2995;-31.998;115.906;2023-08-24T08:14:31;19.40;99.90
5940;DHT22;2995;-31.998;115.906;2023-08-24T08:17:05;19.40;99.90
5940;DHT22;2995;-31.998;115.906;2023-08-24T08:19:36;19.40;99.90
5940;DHT22;2995;-31.998;115.906;2023-08-24T08:22:07;19.30;99.90
5940;DHT22;2995;-31.998;115.906;2023-08-24T08:24:38;19.30;99.90
5940;DHT22;2995;-31.998;115.906;2023-08-24T08:27:10;19.20;99.90
5940;DHT22;2995;-31.998;115.906;2023-08-24T08:29:41;19.10;99.90
5940;DHT22;2995;-31.998;115.906;2023-08-24T08:32:15;19.10;99.90
5940;DHT22;2995;-31.998;115.906;2023-08-24T08:34:46;18.90;99.90
5940;DHT22;2995;-31.998;115.906;2023-08-24T08:37:17;19.00;99.90
5940;DHT22;2995;-31.998;115.906;2023-08-24T08:39:48;18.90;99.90
5940;DHT22;2995;-31.998;115.906;2023-08-24T08:42:19;18.90;99.90
5940;DHT22;2995;-31.998;115.906;2023-08-24T08:44:52;18.90;99.90
5940;DHT22;2995;-31.998;115.906;2023-08-24T08:47:26;18.80;99.90
5940;DHT22;2995;-31.998;115.906;2023-08-24T08:49:57;18.80;99.90
5940;DHT22;2995;-31.998;115.906;2023-08-24T08:52:31;18.80;99.90
5940;DHT22;2995;-31.998;115.906;2023-08-24T08:55:02;18.70;99.90
5940;DHT22;2995;-31.998;115.906;2023-08-24T08:57:37;18.60;99.90
5940;DHT22;2995;-31.998;115.906;2023-08-24T09:00:11;18.60;99.90
5940;DHT22;2995;-31.998;115.906;2023-08-24T09:02:47;18.50;99.90
5940;DHT22;2995;-31.998;115.906;2023-08-24T09:05:19;18.50;99.90
5940;DHT22;2995;-31.998;115.906;2023-08-24T09:07:51;18.40;99.90
5940;DHT22;2995;-31.998;115.906;2023-08-24T09:10:22;18.40;99.90
5940;DHT22;2995;-31.998;115.906;2023-08-24T09:12:53;18.40;99.90
5940;DHT22;2995;-31.998;115.906;2023-08-24T09:15:28;18.30;99.90
5940;DHT22;2995;-31.998;115.906;2023-08-24T09:18:07;18.40;99.90
5940;DHT22;2995;-31.998;115.906;2023-08-24T09:20:38;18.20;99.90
5940;DHT22;2995;-31.998;115.906;2023-08-24T09:23:18;18.20;99.90
5940;DHT22;2995;-31.998;115.906;2023-08-24T09:25:50;18.10;99.90
5940;DHT22;2995;-31.998;115.906;2023-08-24T09:28:24;18.10;99.90
5940;DHT22;2995;-31.998;115.906;2023-08-24T09:30:55;18.10;99.90
5940;DHT22;2995;-31.998;115.906;2023-08-24T09:33:29;18.10;99.90
5940;DHT22;2995;-31.998;115.906;2023-08-24T09:36:00;18.00;99.90
5940;DHT22;2995;-31.998;115.906;2023-08-24T09:38:32;17.90;99.90
5940;DHT22;2995;-31.998;115.906;2023-08-24T09:41:03;17.90;99.90
5940;DHT22;2995;-31.998;115.906;2023-08-24T09:43:35;17.80;99.90
5940;DHT22;2995;-31.998;115.906;2023-08-24T09:46:06;17.80;99.90
5940;DHT22;2995;-31.998;115.906;2023-08-24T09:48:41;17.70;99.90
5940;DHT22;2995;-31.998;115.906;2023-08-24T09:51:13;17.60;99.90
5940;DHT22;2995;-31.998;115.906;2023-08-24T09:53:45;17.50;99.90
5940;DHT22;2995;-31.998;115.906;2023-08-24T09:56:17;17.50;99.90
5940;DHT22;2995;-31.998;115.906;2023-08-24T09:58:50;17.50;99.90
5940;DHT22;2995;-31.998;115.906;2023-08-24T10:01:23;17.40;99.90
5940;DHT22;2995;-31.998;115.906;2023-08-24T10:03:59;17.40;99.90
5940;DHT22;2995;-31.998;115.906;2023-08-24T10:06:31;17.30;99.90
5940;DHT22;2995;-31.998;115.906;2023-08-24T10:09:03;17.20;99.90
5940;DHT22;2995;-31.998;115.906;2023-08-24T10:11:42;17.10;99.90
5940;DHT22;2995;-31.998;115.906;2023-08-24T10:14:19;17.00;99.90
5940;DHT22;2995;-31.998;115.906;2023-08-24T10:16:52;17.00;99.90
5940;DHT22;2995;-31.998;115.906;2023-08-24T10:19:25;16.80;99.90
5940;DHT22;2995;-31.998;115.906;2023-08-24T10:21:58;16.80;99.90
5940;DHT22;2995;-31.998;115.906;2023-08-24T10:24:32;16.70;99.90
5940;DHT22;2995;-31.998;115.906;2023-08-24T10:27:04;16.70;99.90
5940;DHT22;2995;-31.998;115.906;2023-08-24T10:29:36;16.60;99.90
5940;DHT22;2995;-31.998;115.906;2023-08-24T10:32:08;16.50;99.90
5940;DHT22;2995;-31.998;115.906;2023-08-24T10:34:42;16.50;99.90
5940;DHT22;2995;-31.998;115.906;2023-08-24T10:37:13;16.50;99.90
5940;DHT22;2995;-31.998;115.906;2023-08-24T10:39:48;16.40;99.90
5940;DHT22;2995;-31.998;115.906;2023-08-24T10:42:19;16.40;99.90
5940;DHT22;2995;-31.998;115.906;2023-08-24T10:44:51;16.30;99.90
5940;DHT22;2995;-31.998;115.906;2023-08-24T10:47:23;16.20;99.90
5940;DHT22;2995;-31.998;115.906;2023-08-24T10:50:02;16.10;99.90
5940;DHT22;2995;-31.998;115.906;2023-08-24T10:52:35;16.10;99.90
5940;DHT22;2995;-31.998;115.906;2023-08-24T10:55:23;16.10;99.90
5940;DHT22;2995;-31.998;115.906;2023-08-24T10:57:58;16.00;99.90
5940;DHT22;2995;-31.998;115.906;2023-08-24T11:00:30;15.90;99.90
5940;DHT22;2995;-31.998;115.906;2023-08-24T11:03:01;15.90;99.90
5940;DHT22;2995;-31.998;115.906;2023-08-24T11:05:34;15.90;99.90
5940;DHT22;2995;-31.998;115.906;2023-08-24T11:08:06;15.80;99.90
5940;DHT22;2995;-31.998;115.906;2023-08-24T11:10:47;15.80;99.90
5940;DHT22;2995;-31.998;115.906;2023-08-24T11:13:18;15.70;99.90
5940;DHT22;2995;-31.998;115.906;2023-08-24T11:15:52;15.70;99.90
5940;DHT22;2995;-31.998;115.906;2023-08-24T11:18:27;15.70;99.90
5940;DHT22;2995;-31.998;115.906;2023-08-24T11:21:01;15.60;99.90
5940;DHT22;2995;-31.998;115.906;2023-08-24T11:23:33;15.60;99.90
5940;DHT22;2995;-31.998;115.906;2023-08-24T11:26:04;15.50;99.90
5940;DHT22;2995;-31.998;115.906;2023-08-24T11:28:35;15.50;99.90
5940;DHT22;2995;-31.998;115.906;2023-08-24T11:31:10;15.40;99.90
5940;DHT22;2995;-31.998;115.906;2023-08-24T11:33:42;15.30;99.90
5940;DHT22;2995;-31.998;115.906;2023-08-24T11:36:15;15.30;99.90
5940;DHT22;2995;-31.998;115.906;2023-08-24T11:38:47;15.40;99.90
5940;DHT22;2995;-31.998;115.906;2023-08-24T11:41:18;15.30;99.90
5940;DHT22;2995;-31.998;115.906;2023-08-24T11:43:58;15.40;99.90
5940;DHT22;2995;-31.998;115.906;2023-08-24T11:46:30;15.30;99.90
5940;DHT22;2995;-31.998;115.906;2023-08-24T11:49:01;15.30;99.90
5940;DHT22;2995;-31.998;115.906;2023-08-24T11:51:37;15.20;99.90
5940;DHT22;2995;-31.998;115.906;2023-08-24T11:54:08;15.10;99.90
5940;DHT22;2995;-31.998;115.906;2023-08-24T11:56:42;15.10;99.90
5940;DHT22;2995;-31.998;115.906;2023-08-24T11:59:14;15.10;99.90
5940;DHT22;2995;-31.998;115.906;2023-08-24T12:01:46;15.00;99.90
5940;DHT22;2995;-31.998;115.906;2023-08-24T12:04:18;14.90;99.90
5940;DHT22;2995;-31.998;115.906;2023-08-24T12:06:51;14.90;99.90
5940;DHT22;2995;-31.998;115.906;2023-08-24T12:09:22;15.00;99.90
5940;DHT22;2995;-31.998;115.906;2023-08-24T12:11:57;14.90;99.90
5940;DHT22;2995;-31.998;115.906;2023-08-24T12:14:28;14.70;99.90
5940;DHT22;2995;-31.998;115.906;2023-08-24T12:17:11;14.70;99.90
5940;DHT22;2995;-31.998;115.906;2023-08-24T12:19:43;14.60;99.90
5940;DHT22;2995;-31.998;115.906;2023-08-24T12:22:19;14.60;99.90
5940;DHT22;2995;-31.998;115.906;2023-08-24T12:24:50;14.50;99.90
5940;DHT22;2995;-31.998;115.906;2023-08-24T12:27:22;14.50;99.90
5940;DHT22;2995;-31.998;115.906;2023-08-24T12:29:54;14.40;99.90
5940;DHT22;2995;-31.998;115.906;2023-08-24T12:32:25;14.30;99.90
5940;DHT22;2995;-31.998;115.906;2023-08-24T12:34:58;14.30;99.90
5940;DHT22;2995;-31.998;115.906;2023-08-24T12:37:33;14.30;99.90
5940;DHT22;2995;-31.998;115.906;2023-08-24T12:40:04;14.20;99.90
5940;DHT22;2995;-31.998;115.906;2023-08-24T12:42:36;14.10;99.90
5940;DHT22;2995;-31.998;115.906;2023-08-24T12:45:08;14.10;99.90
5940;DHT22;2995;-31.998;115.906;2023-08-24T12:47:39;14.10;99.90
5940;DHT22;2995;-31.998;115.906;2023-08-24T12:50:11;14.10;99.90
5940;DHT22;2995;-31.998;115.906;2023-08-24T12:52:44;14.10;99.90
5940;DHT22;2995;-31.998;115.906;2023-08-24T12:55:15;14.00;99.90
5940;DHT22;2995;-31.998;115.906;2023-08-24T12:57:46;13.90;99.90
5940;DHT22;2995;-31.998;115.906;2023-08-24T13:00:17;13.90;99.90
5940;DHT22;2995;-31.998;115.906;2023-08-24T13:02:49;13.80;99.90
5940;DHT22;2995;-31.998;115.906;2023-08-24T13:05:20;13.80;99.90
5940;DHT22;2995;-31.998;115.906;2023-08-24T13:07:53;13.70;99.90
5940;DHT22;2995;-31.998;115.906;2023-08-24T13:10:25;13.70;99.90
5940;DHT22;2995;-31.998;115.906;2023-08-24T13:12:57;13.70;99.90
5940;DHT22;2995;-31.998;115.906;2023-08-24T13:15:29;13.70;99.90
5940;DHT22;2995;-31.998;115.906;2023-08-24T13:18:00;13.60;99.90
5940;DHT22;2995;-31.998;115.906;2023-08-24T13:20:32;13.70;99.90
5940;DHT22;2995;-31.998;115.906;2023-08-24T13:23:05;13.60;99.90
5940;DHT22;2995;-31.998;115.906;2023-08-24T13:25:36;13.50;99.90
5940;DHT22;2995;-31.998;115.906;2023-08-24T13:28:07;13.40;99.90
5940;DHT22;2995;-31.998;115.906;2023-08-24T13:30:39;13.40;99.90
5940;DHT22;2995;-31.998;115.906;2023-08-24T13:33:11;13.30;99.90
5940;DHT22;2995;-31.998;115.906;2023-08-24T13:35:43;13.30;99.90
5940;DHT22;2995;-31.998;115.906;2023-08-24T13:38:16;13.20;99.90
5940;DHT22;2995;-31.998;115.906;2023-08-24T13:40:47;13.20;99.90
5940;DHT22;2995;-31.998;115.906;2023-08-24T13:43:19;13.10;99.90
5940;DHT22;2995;-31.998;115.906;2023-08-24T13:45:50;13.10;99.90
5940;DHT22;2995;-31.998;115.906;2023-08-24T13:48:22;13.10;99.90
5940;DHT22;2995;-31.998;115.906;2023-08-24T13:50:54;13.00;99.90
5940;DHT22;2995;-31.998;115.906;2023-08-24T13:53:28;13.00;99.90
5940;DHT22;2995;-31.998;115.906;2023-08-24T13:55:59;13.00;99.90
5940;DHT22;2995;-31.998;115.906;2023-08-24T13:58:30;12.90;99.90
5940;DHT22;2995;-31.998;115.906;2023-08-24T14:01:01;12.80;99.90
5940;DHT22;2995;-31.998;115.906;2023-08-24T14:03:33;12.90;99.90
5940;DHT22;2995;-31.998;115.906;2023-08-24T14:06:05;12.90;99.90
5940;DHT22;2995;-31.998;115.906;2023-08-24T14:08:38;12.80;99.90
5940;DHT22;2995;-31.998;115.906;2023-08-24T14:11:10;12.70;99.90
5940;DHT22;2995;-31.998;115.906;2023-08-24T14:13:41;12.70;99.90
5940;DHT22;2995;-31.998;115.906;2023-08-24T14:16:12;12.50;99.90
5940;DHT22;2995;-31.998;115.906;2023-08-24T14:18:43;12.60;99.90
5940;DHT22;2995;-31.998;115.906;2023-08-24T14:21:15;12.50;99.90
5940;DHT22;2995;-31.998;115.906;2023-08-24T14:23:50;12.50;99.90
5940;DHT22;2995;-31.998;115.906;2023-08-24T14:26:21;12.50;99.90
5940;DHT22;2995;-31.998;115.906;2023-08-24T14:28:53;12.50;99.90
5940;DHT22;2995;-31.998;115.906;2023-08-24T14:31:25;12.50;99.90
5940;DHT22;2995;-31.998;115.906;2023-08-24T14:33:57;12.40;99.90
5940;DHT22;2995;-31.998;115.906;2023-08-24T14:36:30;12.40;99.90
5940;DHT22;2995;-31.998;115.906;2023-08-24T14:39:03;12.40;99.90
5940;DHT22;2995;-31.998;115.906;2023-08-24T14:41:35;12.40;99.90
5940;DHT22;2995;-31.998;115.906;2023-08-24T14:44:06;12.50;99.90
5940;DHT22;2995;-31.998;115.906;2023-08-24T14:46:38;12.30;99.90
5940;DHT22;2995;-31.998;115.906;2023-08-24T14:49:09;12.30;99.90
5940;DHT22;2995;-31.998;115.906;2023-08-24T14:51:40;12.20;99.90
5940;DHT22;2995;-31.998;115.906;2023-08-24T14:54:13;12.20;99.90
5940;DHT22;2995;-31.998;115.906;2023-08-24T14:56:45;12.20;99.90
5940;DHT22;2995;-31.998;115.906;2023-08-24T14:59:16;12.10;99.90
5940;DHT22;2995;-31.998;115.906;2023-08-24T15:01:47;12.00;99.90
5940;DHT22;2995;-31.998;115.906;2023-08-24T15:04:18;11.90;99.90
5940;DHT22;2995;-31.998;115.906;2023-08-24T15:06:50;11.90;99.90
5940;DHT22;2995;-31.998;115.906;2023-08-24T15:09:25;11.90;99.90
5940;DHT22;2995;-31.998;115.906;2023-08-24T15:11:56;11.80;99.90
5940;DHT22;2995;-31.998;115.906;2023-08-24T15:14:29;11.80;99.90
5940;DHT22;2995;-31.998;115.906;2023-08-24T15:17:02;11.80;99.90
5940;DHT22;2995;-31.998;115.906;2023-08-24T15:19:33;11.90;99.90
5940;DHT22;2995;-31.998;115.906;2023-08-24T15:22:04;11.90;99.90
5940;DHT22;2995;-31.998;115.906;2023-08-24T15:24:38;11.80;99.90
5940;DHT22;2995;-31.998;115.906;2023-08-24T15:27:10;11.80;99.90
5940;DHT22;2995;-31.998;115.906;2023-08-24T15:29:41;11.80;99.90
5940;DHT22;2995;-31.998;115.906;2023-08-24T15:32:12;11.70;99.90
5940;DHT22;2995;-31.998;115.906;2023-08-24T15:34:43;11.70;99.90
5940;DHT22;2995;-31.998;115.906;2023-08-24T15:37:14;11.70;99.90
5940;DHT22;2995;-31.998;115.906;2023-08-24T15:39:48;11.70;99.90
5940;DHT22;2995;-31.998;115.906;2023-08-24T15:42:19;11.60;99.90
5940;DHT22;2995;-31.998;115.906;2023-08-24T15:44:50;11.60;99.90
5940;DHT22;2995;-31.998;115.906;2023-08-24T15:47:21;11.60;99.90
5940;DHT22;2995;-31.998;115.906;2023-08-24T15:49:53;11.50;99.90